sensor_id;sensor_type;location;lat;lon;timestamp;P1;durP1;ratioP1;P2;durP2;ratioP2
38717;SDS011;24468;52.128;9.278;2022-07-04T00:00:48;1.67;;;0.50;;
38717;SDS011;24468;52.128;9.278;2022-07-04T00:03:13;0.65;;;0.43;;
38717;SDS011;24468;52.128;9.278;2022-07-04T00:05:39;1.30;;;0.55;;
38717;SDS011;24468;52.128;9.278;2022-07-04T00:08:05;1.45;;;0.55;;
38717;SDS011;24468;52.128;9.278;2022-07-04T00:10:30;1.15;;;0.40;;
38717;SDS011;24468;52.128;9.278;2022-07-04T00:12:56;2.17;;;0.90;;
38717;SDS011;24468;52.128;9.278;2022-07-04T00:15:22;1.10;;;0.50;;
38717;SDS011;24468;52.128;9.278;2022-07-04T00:17:47;1.38;;;0.70;;
38717;SDS011;24468;52.128;9.278;2022-07-04T00:20:13;0.85;;;0.50;;
38717;SDS011;24468;52.128;9.278;2022-07-04T00:22:38;0.85;;;0.57;;
38717;SDS011;24468;52.128;9.278;2022-07-04T00:25:05;2.92;;;0.70;;
38717;SDS011;24468;52.128;9.278;2022-07-04T00:27:31;1.20;;;0.52;;
38717;SDS011;24468;52.128;9.278;2022-07-04T00:29:56;1.65;;;0.68;;
38717;SDS011;24468;52.128;9.278;2022-07-04T00:32:22;4.28;;;0.70;;
38717;SDS011;24468;52.128;9.278;2022-07-04T00:34:48;1.08;;;0.60;;
38717;SDS011;24468;52.128;9.278;2022-07-04T00:37:13;1.48;;;0.70;;
38717;SDS011;24468;52.128;9.278;2022-07-04T00:39:39;1.00;;;0.35;;
38717;SDS011;24468;52.128;9.278;2022-07-04T00:42:05;1.25;;;0.77;;
38717;SDS011;24468;52.128;9.278;2022-07-04T00:44:31;1.40;;;0.75;;
38717;SDS011;24468;52.128;9.278;2022-07-04T00:47:01;1.10;;;0.70;;
38717;SDS011;24468;52.128;9.278;2022-07-04T00:49:28;1.25;;;0.80;;
38717;SDS011;24468;52.128;9.278;2022-07-04T00:51:53;0.40;;;0.40;;
38717;SDS011;24468;52.128;9.278;2022-07-04T00:54:19;2.15;;;1.13;;
38717;SDS011;24468;52.128;9.278;2022-07-04T00:56:49;1.17;;;0.95;;
38717;SDS011;24468;52.128;9.278;2022-07-04T00:59:15;1.27;;;1.00;;
38717;SDS011;24468;52.128;9.278;2022-07-04T01:01:40;1.42;;;0.63;;
38717;SDS011;24468;52.128;9.278;2022-07-04T01:04:06;1.10;;;0.50;;
38717;SDS011;24468;52.128;9.278;2022-07-04T01:06:32;1.05;;;0.70;;
38717;SDS011;24468;52.128;9.278;2022-07-04T01:08:59;1.05;;;0.80;;
38717;SDS011;24468;52.128;9.278;2022-07-04T01:11:25;2.17;;;0.60;;
38717;SDS011;24468;52.128;9.278;2022-07-04T01:13:53;1.80;;;0.65;;
38717;SDS011;24468;52.128;9.278;2022-07-04T01:16:19;1.58;;;0.75;;
38717;SDS011;24468;52.128;9.278;2022-07-04T01:18:44;3.47;;;1.00;;
38717;SDS011;24468;52.128;9.278;2022-07-04T01:21:10;3.33;;;0.60;;
38717;SDS011;24468;52.128;9.278;2022-07-04T01:23:37;1.92;;;0.80;;
38717;SDS011;24468;52.128;9.278;2022-07-04T01:26:04;1.33;;;0.68;;
38717;SDS011;24468;52.128;9.278;2022-07-04T01:28:29;0.70;;;0.70;;
38717;SDS011;24468;52.128;9.278;2022-07-04T01:30:55;2.33;;;0.70;;
38717;SDS011;24468;52.128;9.278;2022-07-04T01:33:20;1.42;;;0.90;;
38717;SDS011;24468;52.128;9.278;2022-07-04T01:35:46;2.40;;;0.88;;
38717;SDS011;24468;52.128;9.278;2022-07-04T01:38:12;1.30;;;0.60;;
38717;SDS011;24468;52.128;9.278;2022-07-04T01:40:38;0.68;;;0.68;;
38717;SDS011;24468;52.128;9.278;2022-07-04T01:43:04;0.70;;;0.70;;
38717;SDS011;24468;52.128;9.278;2022-07-04T01:45:30;1.17;;;0.50;;
38717;SDS011;24468;52.128;9.278;2022-07-04T01:47:59;1.05;;;0.50;;
38717;SDS011;24468;52.128;9.278;2022-07-04T01:50:25;0.82;;;0.82;;
38717;SDS011;24468;52.128;9.278;2022-07-04T01:52:51;1.05;;;0.73;;
38717;SDS011;24468;52.128;9.278;2022-07-04T01:55:17;1.23;;;0.55;;
38717;SDS011;24468;52.128;9.278;2022-07-04T01:57:42;4.53;;;0.52;;
38717;SDS011;24468;52.128;9.278;2022-07-04T02:00:08;0.68;;;0.40;;
38717;SDS011;24468;52.128;9.278;2022-07-04T02:02:54;1.23;;;0.70;;
38717;SDS011;24468;52.128;9.278;2022-07-04T02:05:20;1.38;;;0.77;;
38717;SDS011;24468;52.128;9.278;2022-07-04T02:07:47;2.50;;;0.80;;
38717;SDS011;24468;52.128;9.278;2022-07-04T02:10:13;0.70;;;0.70;;
38717;SDS011;24468;52.128;9.278;2022-07-04T02:12:39;1.60;;;0.73;;
38717;SDS011;24468;52.128;9.278;2022-07-04T02:15:24;1.38;;;0.65;;
38717;SDS011;24468;52.128;9.278;2022-07-04T02:17:50;3.53;;;0.60;;
38717;SDS011;24468;52.128;9.278;2022-07-04T02:20:16;1.63;;;0.68;;
38717;SDS011;24468;52.128;9.278;2022-07-04T02:22:41;1.00;;;0.75;;
38717;SDS011;24468;52.128;9.278;2022-07-04T02:25:07;0.70;;;0.45;;
38717;SDS011;24468;52.128;9.278;2022-07-04T02:27:33;0.90;;;0.40;;
38717;SDS011;24468;52.128;9.278;2022-07-04T02:29:59;2.30;;;0.77;;
38717;SDS011;24468;52.128;9.278;2022-07-04T02:32:24;2.05;;;0.55;;
38717;SDS011;24468;52.128;9.278;2022-07-04T02:34:50;0.80;;;0.40;;
38717;SDS011;24468;52.128;9.278;2022-07-04T02:37:16;0.70;;;0.60;;
38717;SDS011;24468;52.128;9.278;2022-07-04T02:39:41;1.00;;;0.68;;
38717;SDS011;24468;52.128;9.278;2022-07-04T02:42:07;1.92;;;0.40;;
38717;SDS011;24468;52.128;9.278;2022-07-04T02:44:35;1.17;;;0.70;;
38717;SDS011;24468;52.128;9.278;2022-07-04T02:47:00;2.08;;;0.30;;
38717;SDS011;24468;52.128;9.278;2022-07-04T02:49:26;0.75;;;0.70;;
38717;SDS011;24468;52.128;9.278;2022-07-04T02:51:52;1.77;;;1.00;;
38717;SDS011;24468;52.128;9.278;2022-07-04T02:54:17;3.70;;;0.70;;
38717;SDS011;24468;52.128;9.278;2022-07-04T02:56:43;3.63;;;1.40;;
38717;SDS011;24468;52.128;9.278;2022-07-04T02:59:08;1.67;;;0.70;;
38717;SDS011;24468;52.128;9.278;2022-07-04T03:01:34;2.45;;;1.20;;
38717;SDS011;24468;52.128;9.278;2022-07-04T03:04:00;2.60;;;1.00;;
38717;SDS011;24468;52.128;9.278;2022-07-04T03:06:27;1.98;;;0.95;;
38717;SDS011;24468;52.128;9.278;2022-07-04T03:08:53;1.65;;;1.00;;
38717;SDS011;24468;52.128;9.278;2022-07-04T03:11:19;1.60;;;1.25;;
38717;SDS011;24468;52.128;9.278;2022-07-04T03:13:44;2.25;;;1.17;;
38717;SDS011;24468;52.128;9.278;2022-07-04T03:16:11;1.02;;;0.73;;
38717;SDS011;24468;52.128;9.278;2022-07-04T03:18:36;1.88;;;1.63;;
38717;SDS011;24468;52.128;9.278;2022-07-04T03:21:03;4.18;;;0.70;;
38717;SDS011;24468;52.128;9.278;2022-07-04T03:23:29;1.58;;;0.60;;
38717;SDS011;24468;52.128;9.278;2022-07-04T03:25:59;1.40;;;0.60;;
38717;SDS011;24468;52.128;9.278;2022-07-04T03:28:25;0.95;;;0.60;;
38717;SDS011;24468;52.128;9.278;2022-07-04T03:30:52;1.65;;;0.57;;
38717;SDS011;24468;52.128;9.278;2022-07-04T03:33:17;2.72;;;1.00;;
38717;SDS011;24468;52.128;9.278;2022-07-04T03:35:43;2.33;;;0.55;;
38717;SDS011;24468;52.128;9.278;2022-07-04T03:38:09;1.67;;;0.73;;
38717;SDS011;24468;52.128;9.278;2022-07-04T03:40:34;2.08;;;0.93;;
38717;SDS011;24468;52.128;9.278;2022-07-04T03:43:01;2.05;;;0.88;;
38717;SDS011;24468;52.128;9.278;2022-07-04T03:45:28;0.70;;;0.60;;
38717;SDS011;24468;52.128;9.278;2022-07-04T03:47:54;0.90;;;0.90;;
38717;SDS011;24468;52.128;9.278;2022-07-04T03:50:21;1.42;;;0.90;;
38717;SDS011;24468;52.128;9.278;2022-07-04T03:52:47;1.23;;;1.00;;
38717;SDS011;24468;52.128;9.278;2022-07-04T03:55:13;1.27;;;0.85;;
38717;SDS011;24468;52.128;9.278;2022-07-04T03:57:38;2.95;;;0.77;;
38717;SDS011;24468;52.128;9.278;2022-07-04T04:00:04;2.25;;;1.13;;
38717;SDS011;24468;52.128;9.278;2022-07-04T04:02:32;0.80;;;0.70;;
38717;SDS011;24468;52.128;9.278;2022-07-04T04:04:58;1.42;;;0.95;;
38717;SDS011;24468;52.128;9.278;2022-07-04T04:07:42;1.35;;;0.57;;
38717;SDS011;24468;52.128;9.278;2022-07-04T04:10:09;3.65;;;0.90;;
38717;SDS011;24468;52.128;9.278;2022-07-04T04:12:35;1.25;;;0.73;;
38717;SDS011;24468;52.128;9.278;2022-07-04T04:15:01;2.28;;;0.70;;
38717;SDS011;24468;52.128;9.278;2022-07-04T04:17:27;5.10;;;1.02;;
38717;SDS011;24468;52.128;9.278;2022-07-04T04:19:52;2.80;;;1.17;;
38717;SDS011;24468;52.128;9.278;2022-07-04T04:22:18;2.33;;;1.15;;
38717;SDS011;24468;52.128;9.278;2022-07-04T04:24:43;2.20;;;1.42;;
38717;SDS011;24468;52.128;9.278;2022-07-04T04:27:09;3.13;;;1.70;;
38717;SDS011;24468;52.128;9.278;2022-07-04T04:29:34;5.53;;;1.27;;
38717;SDS011;24468;52.128;9.278;2022-07-04T04:32:00;1.65;;;0.80;;
38717;SDS011;24468;52.128;9.278;2022-07-04T04:34:25;3.50;;;0.90;;
38717;SDS011;24468;52.128;9.278;2022-07-04T04:36:51;0.80;;;0.80;;
38717;SDS011;24468;52.128;9.278;2022-07-04T04:39:16;2.10;;;1.05;;
38717;SDS011;24468;52.128;9.278;2022-07-04T04:41:42;1.38;;;0.90;;
38717;SDS011;24468;52.128;9.278;2022-07-04T04:44:07;0.90;;;0.90;;
38717;SDS011;24468;52.128;9.278;2022-07-04T04:46:33;1.33;;;1.23;;
38717;SDS011;24468;52.128;9.278;2022-07-04T04:48:58;3.13;;;1.30;;
38717;SDS011;24468;52.128;9.278;2022-07-04T04:51:24;2.45;;;1.33;;
38717;SDS011;24468;52.128;9.278;2022-07-04T04:53:50;2.42;;;1.50;;
38717;SDS011;24468;52.128;9.278;2022-07-04T04:56:15;3.95;;;1.70;;
38717;SDS011;24468;52.128;9.278;2022-07-04T04:58:41;5.43;;;1.75;;
38717;SDS011;24468;52.128;9.278;2022-07-04T05:01:06;1.55;;;1.40;;
38717;SDS011;24468;52.128;9.278;2022-07-04T05:03:32;3.20;;;1.38;;
38717;SDS011;24468;52.128;9.278;2022-07-04T05:05:57;3.55;;;1.90;;
38717;SDS011;24468;52.128;9.278;2022-07-04T05:08:23;3.50;;;1.30;;
38717;SDS011;24468;52.128;9.278;2022-07-04T05:10:52;2.10;;;1.90;;
38717;SDS011;24468;52.128;9.278;2022-07-04T05:13:19;5.40;;;1.83;;
38717;SDS011;24468;52.128;9.278;2022-07-04T05:15:45;2.85;;;1.80;;
38717;SDS011;24468;52.128;9.278;2022-07-04T05:18:11;2.92;;;1.90;;
38717;SDS011;24468;52.128;9.278;2022-07-04T05:20:37;2.63;;;1.95;;
38717;SDS011;24468;52.128;9.278;2022-07-04T05:23:04;3.17;;;1.85;;
38717;SDS011;24468;52.128;9.278;2022-07-04T05:25:32;1.23;;;0.95;;
38717;SDS011;24468;52.128;9.278;2022-07-04T05:27:58;2.22;;;2.03;;
38717;SDS011;24468;52.128;9.278;2022-07-04T05:30:24;2.72;;;1.60;;
38717;SDS011;24468;52.128;9.278;2022-07-04T05:32:50;2.22;;;2.03;;
38717;SDS011;24468;52.128;9.278;2022-07-04T05:35:15;2.70;;;2.50;;
38717;SDS011;24468;52.128;9.278;2022-07-04T05:37:41;3.00;;;2.70;;
38717;SDS011;24468;52.128;9.278;2022-07-04T05:40:08;3.50;;;2.45;;
38717;SDS011;24468;52.128;9.278;2022-07-04T05:42:35;5.47;;;2.20;;
38717;SDS011;24468;52.128;9.278;2022-07-04T05:45:01;3.05;;;2.40;;
38717;SDS011;24468;52.128;9.278;2022-07-04T05:47:27;3.72;;;2.85;;
38717;SDS011;24468;52.128;9.278;2022-07-04T05:49:53;4.38;;;2.67;;
38717;SDS011;24468;52.128;9.278;2022-07-04T05:52:18;5.43;;;2.50;;
38717;SDS011;24468;52.128;9.278;2022-07-04T05:54:44;3.28;;;2.53;;
38717;SDS011;24468;52.128;9.278;2022-07-04T05:57:09;3.00;;;2.60;;
38717;SDS011;24468;52.128;9.278;2022-07-04T05:59:35;2.90;;;2.60;;
38717;SDS011;24468;52.128;9.278;2022-07-04T06:02:01;3.95;;;1.38;;
38717;SDS011;24468;52.128;9.278;2022-07-04T06:04:27;2.60;;;2.20;;
38717;SDS011;24468;52.128;9.278;2022-07-04T06:06:52;3.97;;;2.50;;
38717;SDS011;24468;52.128;9.278;2022-07-04T06:09:18;1.40;;;1.30;;
38717;SDS011;24468;52.128;9.278;2022-07-04T06:11:43;4.15;;;2.65;;
38717;SDS011;24468;52.128;9.278;2022-07-04T06:14:09;2.92;;;2.58;;
38717;SDS011;24468;52.128;9.278;2022-07-04T06:16:35;3.95;;;2.83;;
38717;SDS011;24468;52.128;9.278;2022-07-04T06:19:00;7.25;;;3.55;;
38717;SDS011;24468;52.128;9.278;2022-07-04T06:21:26;3.92;;;2.72;;
38717;SDS011;24468;52.128;9.278;2022-07-04T06:23:51;2.70;;;1.40;;
38717;SDS011;24468;52.128;9.278;2022-07-04T06:26:18;3.00;;;2.13;;
38717;SDS011;24468;52.128;9.278;2022-07-04T06:28:43;3.90;;;1.00;;
38717;SDS011;24468;52.128;9.278;2022-07-04T06:31:10;4.45;;;2.80;;
38717;SDS011;24468;52.128;9.278;2022-07-04T06:33:36;4.35;;;2.42;;
38717;SDS011;24468;52.128;9.278;2022-07-04T06:36:22;4.30;;;2.95;;
38717;SDS011;24468;52.128;9.278;2022-07-04T06:38:48;4.68;;;2.20;;
38717;SDS011;24468;52.128;9.278;2022-07-04T06:41:13;5.28;;;2.60;;
38717;SDS011;24468;52.128;9.278;2022-07-04T06:43:39;2.63;;;2.40;;
38717;SDS011;24468;52.128;9.278;2022-07-04T06:46:04;4.00;;;1.95;;
38717;SDS011;24468;52.128;9.278;2022-07-04T06:48:30;2.67;;;1.73;;
38717;SDS011;24468;52.128;9.278;2022-07-04T06:50:55;3.45;;;2.15;;
38717;SDS011;24468;52.128;9.278;2022-07-04T06:53:21;3.35;;;1.17;;
38717;SDS011;24468;52.128;9.278;2022-07-04T06:55:46;5.20;;;1.52;;
38717;SDS011;24468;52.128;9.278;2022-07-04T06:58:13;3.97;;;1.40;;
38717;SDS011;24468;52.128;9.278;2022-07-04T07:00:38;2.53;;;1.30;;
38717;SDS011;24468;52.128;9.278;2022-07-04T07:03:06;2.67;;;1.40;;
38717;SDS011;24468;52.128;9.278;2022-07-04T07:05:32;3.08;;;1.42;;
38717;SDS011;24468;52.128;9.278;2022-07-04T07:07:59;3.20;;;2.30;;
38717;SDS011;24468;52.128;9.278;2022-07-04T07:10:24;4.57;;;1.67;;
38717;SDS011;24468;52.128;9.278;2022-07-04T07:12:50;5.18;;;2.20;;
38717;SDS011;24468;52.128;9.278;2022-07-04T07:15:16;2.38;;;1.52;;
38717;SDS011;24468;52.128;9.278;2022-07-04T07:17:43;4.57;;;1.80;;
38717;SDS011;24468;52.128;9.278;2022-07-04T07:20:09;3.55;;;1.85;;
38717;SDS011;24468;52.128;9.278;2022-07-04T07:22:35;2.63;;;2.10;;
38717;SDS011;24468;52.128;9.278;2022-07-04T07:25:00;4.72;;;1.80;;
38717;SDS011;24468;52.128;9.278;2022-07-04T07:27:26;4.13;;;2.03;;
38717;SDS011;24468;52.128;9.278;2022-07-04T07:29:52;3.00;;;1.60;;
38717;SDS011;24468;52.128;9.278;2022-07-04T07:32:18;3.70;;;1.70;;
38717;SDS011;24468;52.128;9.278;2022-07-04T07:34:43;1.98;;;1.40;;
38717;SDS011;24468;52.128;9.278;2022-07-04T07:37:09;3.70;;;1.80;;
38717;SDS011;24468;52.128;9.278;2022-07-04T07:39:35;1.10;;;1.00;;
38717;SDS011;24468;52.128;9.278;2022-07-04T07:42:00;2.13;;;0.88;;
38717;SDS011;24468;52.128;9.278;2022-07-04T07:44:26;2.45;;;1.38;;
38717;SDS011;24468;52.128;9.278;2022-07-04T07:46:51;2.58;;;1.02;;
38717;SDS011;24468;52.128;9.278;2022-07-04T07:49:17;2.45;;;1.15;;
38717;SDS011;24468;52.128;9.278;2022-07-04T07:51:42;1.60;;;0.85;;
38717;SDS011;24468;52.128;9.278;2022-07-04T07:54:08;2.20;;;1.23;;
38717;SDS011;24468;52.128;9.278;2022-07-04T07:56:34;1.27;;;1.05;;
38717;SDS011;24468;52.128;9.278;2022-07-04T07:58:59;14.38;;;2.03;;
38717;SDS011;24468;52.128;9.278;2022-07-04T08:01:25;2.15;;;0.93;;
38717;SDS011;24468;52.128;9.278;2022-07-04T08:03:50;1.88;;;1.17;;
38717;SDS011;24468;52.128;9.278;2022-07-04T08:06:35;8.80;;;1.00;;
38717;SDS011;24468;52.128;9.278;2022-07-04T08:09:01;1.55;;;0.85;;
38717;SDS011;24468;52.128;9.278;2022-07-04T08:11:26;5.50;;;1.08;;
38717;SDS011;24468;52.128;9.278;2022-07-04T08:13:52;1.65;;;0.70;;
38717;SDS011;24468;52.128;9.278;2022-07-04T08:16:18;2.08;;;0.60;;
38717;SDS011;24468;52.128;9.278;2022-07-04T08:18:43;1.67;;;0.70;;
38717;SDS011;24468;52.128;9.278;2022-07-04T08:21:09;3.40;;;0.80;;
38717;SDS011;24468;52.128;9.278;2022-07-04T08:23:35;2.40;;;0.60;;
38717;SDS011;24468;52.128;9.278;2022-07-04T08:26:02;1.40;;;0.40;;
38717;SDS011;24468;52.128;9.278;2022-07-04T08:28:28;1.50;;;0.40;;
38717;SDS011;24468;52.128;9.278;2022-07-04T08:30:54;1.27;;;0.60;;
38717;SDS011;24468;52.128;9.278;2022-07-04T08:33:21;3.45;;;0.77;;
38717;SDS011;24468;52.128;9.278;2022-07-04T08:35:47;2.80;;;0.90;;
38717;SDS011;24468;52.128;9.278;2022-07-04T08:38:13;1.33;;;0.40;;
38717;SDS011;24468;52.128;9.278;2022-07-04T08:40:40;6.35;;;0.75;;
38717;SDS011;24468;52.128;9.278;2022-07-04T08:43:05;1.80;;;0.50;;
38717;SDS011;24468;52.128;9.278;2022-07-04T08:45:32;1.65;;;0.70;;
38717;SDS011;24468;52.128;9.278;2022-07-04T08:48:02;2.67;;;0.50;;
38717;SDS011;24468;52.128;9.278;2022-07-04T08:50:35;1.77;;;0.68;;
38717;SDS011;24468;52.128;9.278;2022-07-04T08:53:12;1.10;;;0.57;;
38717;SDS011;24468;52.128;9.278;2022-07-04T08:55:42;1.23;;;0.40;;
38717;SDS011;24468;52.128;9.278;2022-07-04T08:58:29;2.35;;;0.50;;
38717;SDS011;24468;52.128;9.278;2022-07-04T09:00:57;1.27;;;0.57;;
38717;SDS011;24468;52.128;9.278;2022-07-04T09:03:25;2.67;;;0.73;;
38717;SDS011;24468;52.128;9.278;2022-07-04T09:05:52;1.77;;;0.60;;
38717;SDS011;24468;52.128;9.278;2022-07-04T09:08:18;1.92;;;0.50;;
38717;SDS011;24468;52.128;9.278;2022-07-04T09:10:44;2.75;;;0.60;;
38717;SDS011;24468;52.128;9.278;2022-07-04T09:13:12;1.50;;;0.47;;
38717;SDS011;24468;52.128;9.278;2022-07-04T09:15:40;2.53;;;0.65;;
38717;SDS011;24468;52.128;9.278;2022-07-04T09:18:27;3.83;;;0.68;;
38717;SDS011;24468;52.128;9.278;2022-07-04T09:20:59;3.28;;;0.93;;
38717;SDS011;24468;52.128;9.278;2022-07-04T09:23:27;1.52;;;0.50;;
38717;SDS011;24468;52.128;9.278;2022-07-04T09:26:10;0.22;;;0.22;;
38717;SDS011;24468;52.128;9.278;2022-07-04T09:28:38;2.33;;;0.50;;
38717;SDS011;24468;52.128;9.278;2022-07-04T09:31:16;1.30;;;0.20;;
38717;SDS011;24468;52.128;9.278;2022-07-04T09:33:50;3.60;;;0.70;;
38717;SDS011;24468;52.128;9.278;2022-07-04T09:44:26;1.65;;;0.77;;
38717;SDS011;24468;52.128;9.278;2022-07-04T09:47:24;1.10;;;0.55;;
38717;SDS011;24468;52.128;9.278;2022-07-04T09:50:03;0.60;;;0.30;;
38717;SDS011;24468;52.128;9.278;2022-07-04T09:57:58;0.45;;;0.20;;
38717;SDS011;24468;52.128;9.278;2022-07-04T10:00:42;1.60;;;0.50;;
38717;SDS011;24468;52.128;9.278;2022-07-04T10:05:46;1.70;;;0.40;;
38717;SDS011;24468;52.128;9.278;2022-07-04T10:08:31;2.40;;;0.40;;
38717;SDS011;24468;52.128;9.278;2022-07-04T10:10:57;2.05;;;0.32;;
38717;SDS011;24468;52.128;9.278;2022-07-04T10:13:25;1.38;;;0.30;;
38717;SDS011;24468;52.128;9.278;2022-07-04T10:15:51;2.70;;;0.50;;
38717;SDS011;24468;52.128;9.278;2022-07-04T10:18:18;0.95;;;0.30;;
38717;SDS011;24468;52.128;9.278;2022-07-04T10:20:46;0.60;;;0.30;;
38717;SDS011;24468;52.128;9.278;2022-07-04T10:23:14;1.55;;;0.40;;
38717;SDS011;24468;52.128;9.278;2022-07-04T10:25:40;1.30;;;0.50;;
38717;SDS011;24468;52.128;9.278;2022-07-04T10:28:07;2.17;;;0.38;;
38717;SDS011;24468;52.128;9.278;2022-07-04T10:30:34;1.15;;;0.43;;
38717;SDS011;24468;52.128;9.278;2022-07-04T10:33:03;5.38;;;0.40;;
38717;SDS011;24468;52.128;9.278;2022-07-04T10:35:50;0.63;;;0.40;;
38717;SDS011;24468;52.128;9.278;2022-07-04T10:38:47;1.00;;;0.20;;
38717;SDS011;24468;52.128;9.278;2022-07-04T10:41:15;1.77;;;0.63;;
38717;SDS011;24468;52.128;9.278;2022-07-04T10:48:51;2.28;;;0.52;;
38717;SDS011;24468;52.128;9.278;2022-07-04T10:54:45;1.55;;;0.30;;
38717;SDS011;24468;52.128;9.278;2022-07-04T10:57:08;0.52;;;0.30;;
38717;SDS011;24468;52.128;9.278;2022-07-04T10:59:37;1.83;;;0.30;;
38717;SDS011;24468;52.128;9.278;2022-07-04T11:20:35;0.35;;;0.30;;
38717;SDS011;24468;52.128;9.278;2022-07-04T11:23:07;0.77;;;0.40;;
38717;SDS011;24468;52.128;9.278;2022-07-04T11:25:33;2.15;;;0.50;;
38717;SDS011;24468;52.128;9.278;2022-07-04T11:30:48;0.40;;;0.30;;
38717;SDS011;24468;52.128;9.278;2022-07-04T11:33:26;1.35;;;0.40;;
38717;SDS011;24468;52.128;9.278;2022-07-04T11:36:00;1.55;;;0.52;;
38717;SDS011;24468;52.128;9.278;2022-07-04T11:41:16;1.52;;;0.60;;
38717;SDS011;24468;52.128;9.278;2022-07-04T11:44:05;0.65;;;0.40;;
38717;SDS011;24468;52.128;9.278;2022-07-04T11:47:02;1.33;;;0.50;;
38717;SDS011;24468;52.128;9.278;2022-07-04T11:49:41;1.10;;;0.52;;
38717;SDS011;24468;52.128;9.278;2022-07-04T11:52:21;1.35;;;0.50;;
38717;SDS011;24468;52.128;9.278;2022-07-04T11:54:52;0.88;;;0.60;;
38717;SDS011;24468;52.128;9.278;2022-07-04T11:57:25;1.67;;;0.55;;
38717;SDS011;24468;52.128;9.278;2022-07-04T11:59:57;1.20;;;0.80;;
38717;SDS011;24468;52.128;9.278;2022-07-04T12:02:33;2.13;;;0.47;;
38717;SDS011;24468;52.128;9.278;2022-07-04T12:05:00;1.00;;;0.32;;
38717;SDS011;24468;52.128;9.278;2022-07-04T12:07:28;4.90;;;0.40;;
38717;SDS011;24468;52.128;9.278;2022-07-04T12:10:05;2.10;;;0.88;;
38717;SDS011;24468;52.128;9.278;2022-07-04T12:12:59;1.90;;;0.47;;
38717;SDS011;24468;52.128;9.278;2022-07-04T12:18:24;6.80;;;1.05;;
38717;SDS011;24468;52.128;9.278;2022-07-04T12:21:15;4.32;;;0.50;;
38717;SDS011;24468;52.128;9.278;2022-07-04T12:23:51;1.55;;;0.55;;
38717;SDS011;24468;52.128;9.278;2022-07-04T12:26:17;1.92;;;0.40;;
38717;SDS011;24468;52.128;9.278;2022-07-04T12:28:43;2.00;;;0.40;;
38717;SDS011;24468;52.128;9.278;2022-07-04T12:31:08;2.33;;;0.32;;
38717;SDS011;24468;52.128;9.278;2022-07-04T12:33:34;2.92;;;0.57;;
38717;SDS011;24468;52.128;9.278;2022-07-04T12:36:03;2.20;;;0.45;;
38717;SDS011;24468;52.128;9.278;2022-07-04T12:38:35;1.63;;;0.40;;
38717;SDS011;24468;52.128;9.278;2022-07-04T12:46:09;1.30;;;0.40;;
38717;SDS011;24468;52.128;9.278;2022-07-04T12:48:55;0.93;;;0.40;;
38717;SDS011;24468;52.128;9.278;2022-07-04T12:51:22;1.73;;;0.63;;
38717;SDS011;24468;52.128;9.278;2022-07-04T12:53:57;3.15;;;0.52;;
38717;SDS011;24468;52.128;9.278;2022-07-04T12:56:31;0.60;;;0.38;;
38717;SDS011;24468;52.128;9.278;2022-07-04T12:59:00;1.52;;;0.40;;
38717;SDS011;24468;52.128;9.278;2022-07-04T13:01:29;3.53;;;0.40;;
38717;SDS011;24468;52.128;9.278;2022-07-04T13:03:55;1.08;;;0.30;;
38717;SDS011;24468;52.128;9.278;2022-07-04T13:06:21;3.67;;;0.50;;
38717;SDS011;24468;52.128;9.278;2022-07-04T13:08:47;0.93;;;0.32;;
38717;SDS011;24468;52.128;9.278;2022-07-04T13:11:12;1.80;;;0.50;;
38717;SDS011;24468;52.128;9.278;2022-07-04T13:13:57;2.50;;;0.70;;
38717;SDS011;24468;52.128;9.278;2022-07-04T13:16:22;0.70;;;0.43;;
38717;SDS011;24468;52.128;9.278;2022-07-04T13:18:48;1.23;;;0.52;;
38717;SDS011;24468;52.128;9.278;2022-07-04T13:21:14;2.88;;;0.55;;
38717;SDS011;24468;52.128;9.278;2022-07-04T13:23:39;1.20;;;0.47;;
38717;SDS011;24468;52.128;9.278;2022-07-04T13:26:05;1.63;;;0.50;;
38717;SDS011;24468;52.128;9.278;2022-07-04T13:28:30;1.70;;;0.60;;
38717;SDS011;24468;52.128;9.278;2022-07-04T13:30:56;1.77;;;0.40;;
38717;SDS011;24468;52.128;9.278;2022-07-04T13:33:21;4.47;;;0.90;;
38717;SDS011;24468;52.128;9.278;2022-07-04T13:35:47;4.78;;;1.38;;
38717;SDS011;24468;52.128;9.278;2022-07-04T13:38:13;5.13;;;0.80;;
38717;SDS011;24468;52.128;9.278;2022-07-04T13:40:41;2.05;;;0.73;;
38717;SDS011;24468;52.128;9.278;2022-07-04T13:43:08;0.50;;;0.30;;
38717;SDS011;24468;52.128;9.278;2022-07-04T13:45:34;1.70;;;0.70;;
38717;SDS011;24468;52.128;9.278;2022-07-04T13:48:01;2.92;;;0.80;;
38717;SDS011;24468;52.128;9.278;2022-07-04T13:50:27;1.70;;;0.88;;
38717;SDS011;24468;52.128;9.278;2022-07-04T13:52:52;6.20;;;0.65;;
38717;SDS011;24468;52.128;9.278;2022-07-04T13:55:18;0.95;;;0.50;;
38717;SDS011;24468;52.128;9.278;2022-07-04T13:57:43;1.65;;;0.50;;
38717;SDS011;24468;52.128;9.278;2022-07-04T14:00:09;1.38;;;0.50;;
38717;SDS011;24468;52.128;9.278;2022-07-04T14:02:35;1.75;;;0.60;;
38717;SDS011;24468;52.128;9.278;2022-07-04T14:05:01;0.82;;;0.52;;
38717;SDS011;24468;52.128;9.278;2022-07-04T14:07:27;2.30;;;0.60;;
38717;SDS011;24468;52.128;9.278;2022-07-04T14:09:53;1.05;;;0.40;;
38717;SDS011;24468;52.128;9.278;2022-07-04T14:12:19;2.33;;;0.65;;
38717;SDS011;24468;52.128;9.278;2022-07-04T14:14:45;1.67;;;0.65;;
38717;SDS011;24468;52.128;9.278;2022-07-04T14:17:11;3.17;;;0.77;;
38717;SDS011;24468;52.128;9.278;2022-07-04T14:19:37;1.17;;;0.60;;
38717;SDS011;24468;52.128;9.278;2022-07-04T14:22:03;2.58;;;0.30;;
38717;SDS011;24468;52.128;9.278;2022-07-04T14:24:28;1.27;;;0.52;;
38717;SDS011;24468;52.128;9.278;2022-07-04T14:26:54;0.80;;;0.50;;
38717;SDS011;24468;52.128;9.278;2022-07-04T14:29:20;0.98;;;0.43;;
38717;SDS011;24468;52.128;9.278;2022-07-04T14:31:46;2.05;;;0.50;;
38717;SDS011;24468;52.128;9.278;2022-07-04T14:34:12;1.88;;;0.40;;
38717;SDS011;24468;52.128;9.278;2022-07-04T14:36:38;4.43;;;0.60;;
38717;SDS011;24468;52.128;9.278;2022-07-04T14:39:05;1.85;;;0.63;;
38717;SDS011;24468;52.128;9.278;2022-07-04T14:41:31;1.38;;;0.73;;
38717;SDS011;24468;52.128;9.278;2022-07-04T14:43:56;0.77;;;0.32;;
38717;SDS011;24468;52.128;9.278;2022-07-04T14:46:22;1.88;;;0.60;;
38717;SDS011;24468;52.128;9.278;2022-07-04T14:48:47;1.20;;;0.50;;
38717;SDS011;24468;52.128;9.278;2022-07-04T14:51:13;1.33;;;0.40;;
38717;SDS011;24468;52.128;9.278;2022-07-04T14:53:38;4.78;;;0.85;;
38717;SDS011;24468;52.128;9.278;2022-07-04T14:56:04;2.00;;;0.60;;
38717;SDS011;24468;52.128;9.278;2022-07-04T14:58:30;2.65;;;0.63;;
38717;SDS011;24468;52.128;9.278;2022-07-04T15:00:56;1.35;;;0.80;;
38717;SDS011;24468;52.128;9.278;2022-07-04T15:03:22;0.45;;;0.20;;
38717;SDS011;24468;52.128;9.278;2022-07-04T15:05:48;1.65;;;0.60;;
38717;SDS011;24468;52.128;9.278;2022-07-04T15:08:13;1.83;;;0.55;;
38717;SDS011;24468;52.128;9.278;2022-07-04T15:10:39;3.10;;;0.47;;
38717;SDS011;24468;52.128;9.278;2022-07-04T15:13:05;1.10;;;0.38;;
38717;SDS011;24468;52.128;9.278;2022-07-04T15:15:31;0.63;;;0.40;;
38717;SDS011;24468;52.128;9.278;2022-07-04T15:17:57;1.10;;;0.40;;
38717;SDS011;24468;52.128;9.278;2022-07-04T15:20:23;1.25;;;0.55;;
38717;SDS011;24468;52.128;9.278;2022-07-04T15:23:07;1.45;;;0.40;;
38717;SDS011;24468;52.128;9.278;2022-07-04T15:25:51;1.88;;;0.50;;
38717;SDS011;24468;52.128;9.278;2022-07-04T15:28:17;3.33;;;0.60;;
38717;SDS011;24468;52.128;9.278;2022-07-04T15:30:42;1.20;;;0.50;;
38717;SDS011;24468;52.128;9.278;2022-07-04T15:33:08;1.88;;;0.40;;
38717;SDS011;24468;52.128;9.278;2022-07-04T15:38:09;1.98;;;0.60;;
38717;SDS011;24468;52.128;9.278;2022-07-04T15:40:35;0.85;;;0.50;;
38717;SDS011;24468;52.128;9.278;2022-07-04T15:43:01;0.77;;;0.50;;
38717;SDS011;24468;52.128;9.278;2022-07-04T15:45:27;2.10;;;0.57;;
38717;SDS011;24468;52.128;9.278;2022-07-04T15:47:53;2.28;;;0.50;;
38717;SDS011;24468;52.128;9.278;2022-07-04T15:50:19;2.38;;;0.40;;